Portada
METAR-TAF:

METAR-TAF

Aeroports :

Alofi, Niue

latitud: 19-04S, longitud: 169-55W, altitud: 20 m

Observació

L'informe es va fer fa 38 minuts, a les 07:00 UTC
Vent 4 kt del Nord/Nord-Est
Temperatura 25°C
Humitat 89%
Pressió 1014 hPa

METAR: NIUE 190700Z AUTO 02004KT // 25/23 Q1014

Hora: 20:38 (07:38 UTC)

Pronòstic

L'informe es va fer fa 26 hores i 18 minuts, a les 05:20 UTC
Pronòstic vàlid del 18 a les 00 UTC al 18 a les 24 UTC
Vent 9 kt del Est/Nord-Est
Visibilitat 10 km o més
Núvols disperses a una alçada de 1600 ft

TAF: NIUE 170520Z 1800/1824 06009KT 9999 SCT016

Observacions i pronòstics meteorològics de més de 4000 aeroports (METAR i TAF).

Les estacions disponibles són els punts grocs i vermells al mapa.

Posi el ratolí al punt desitjat per veure el nom de l'estació.

Feu clic per veure les observacions i els pronòstics meteorològics.

Per canviar el mapa: feu clic els botons verds amb una creu de color negre per apropar; al botó verd amb un guió per allunyar la imatge; o en les fletxes verdes per a mapes adjacents.


METAR-TAF: